Time;durP1;ratioP1;P1;durP2;ratioP2;P2;SDS_P1;SDS_P2;PMS_P1;PMS_P2;Temp;Humidity;BMP_temperature;BMP_pressure;BME280_temperature;BME280_humidity;BME280_pressure;Samples;Min_cycle;Max_cycle;Signal;HPM_P1;HPM_P2
2022/08/11 00:01:15;;;;;;;10.32;5.20;;;19.80;99.90;;;;;;5058765;28;20294;-73
2022/08/11 00:04:03;;;;;;;6.22;4.40;;;19.70;99.90;;;;;;5062099;28;20225;-73
2022/08/11 00:06:34;;;;;;;7.32;5.10;;;19.60;99.90;;;;;;5061743;28;20205;-74
2022/08/11 00:09:04;;;;;;;6.50;5.20;;;19.50;99.90;;;;;;5059343;28;20213;-75
2022/08/11 00:11:35;;;;;;;8.23;4.93;;;19.50;99.90;;;;;;5057778;28;20206;-73
2022/08/11 00:14:12;;;;;;;7.57;5.60;;;19.60;99.90;;;;;;5063957;28;20210;-74
2022/08/11 00:16:40;;;;;;;6.80;5.20;;;19.40;99.90;;;;;;5058548;28;20679;-74
2022/08/11 00:19:08;;;;;;;6.40;4.93;;;19.40;99.90;;;;;;5058610;28;20308;-74
2022/08/11 00:21:41;;;;;;;12.27;6.05;;;19.30;99.90;;;;;;5061341;28;20228;-73
2022/08/11 00:24:37;;;;;;;6.68;5.68;;;19.20;99.90;;;;;;5058381;28;20209;-74
2022/08/11 00:27:30;;;;;;;8.43;5.77;;;19.30;99.90;;;;;;5062851;28;21024;-74
2022/08/11 00:29:57;;;;;;;8.80;5.50;;;19.30;99.90;;;;;;5053175;28;20314;-74
2022/08/11 00:32:25;;;;;;;8.00;5.65;;;19.10;99.90;;;;;;5061474;28;20224;-75
2022/08/11 00:34:53;;;;;;;11.20;6.43;;;19.20;99.90;;;;;;5058862;28;20255;-74
2022/08/11 00:37:49;;;;;;;7.28;5.68;;;19.10;99.90;;;;;;5058203;28;20255;-74
2022/08/11 00:40:27;;;;;;;7.50;5.80;;;19.10;99.90;;;;;;5061471;28;20235;-73
2022/08/11 00:43:21;;;;;;;5.70;4.75;;;19.00;99.90;;;;;;5059693;28;20574;-74
2022/08/11 00:46:09;;;;;;;9.40;5.78;;;19.00;99.90;;;;;;5057669;28;20670;-75
2022/08/11 00:48:49;;;;;;;7.32;5.43;;;19.00;99.90;;;;;;5089148;28;20245;-74
2022/08/11 00:51:50;;;;;;;11.30;6.37;;;18.80;99.90;;;;;;5057816;28;20294;-71
2022/08/11 00:55:06;;;;;;;8.00;6.25;;;18.80;99.90;;;;;;5056879;28;20201;-73
2022/08/11 00:58:11;;;;;;;8.03;5.97;;;18.80;99.90;;;;;;5056938;28;20296;-74
2022/08/11 01:01:10;;;;;;;9.43;6.40;;;18.70;99.90;;;;;;5053385;28;20200;-75
2022/08/11 01:04:08;;;;;;;10.17;6.63;;;18.70;99.90;;;;;;5057295;28;20282;-74
2022/08/11 01:06:44;;;;;;;8.93;6.00;;;18.70;99.90;;;;;;5057826;28;20263;-74
2022/08/11 01:09:32;;;;;;;9.50;6.67;;;18.60;99.90;;;;;;5063936;28;20299;-74
2022/08/11 01:12:27;;;;;;;9.40;5.87;;;18.50;99.90;;;;;;5055852;28;20210;-74
2022/08/11 01:14:59;;;;;;;9.27;7.00;;;18.50;99.90;;;;;;5060211;28;20208;-75
2022/08/11 01:17:45;;;;;;;9.60;6.70;;;18.50;99.90;;;;;;5054642;28;20708;-74
2022/08/11 01:20:21;;;;;;;10.40;7.10;;;18.40;99.90;;;;;;5063588;28;20262;-74
2022/08/11 01:23:46;;;;;;;9.53;7.43;;;18.40;99.90;;;;;;5054570;28;20301;-74
2022/08/11 01:26:59;;;;;;;9.37;6.97;;;18.30;99.90;;;;;;5052039;28;20284;-73
2022/08/11 01:29:53;;;;;;;11.03;6.73;;;18.30;99.90;;;;;;5057700;28;20284;-74
2022/08/11 01:32:39;;;;;;;8.57;6.80;;;18.20;99.90;;;;;;5058457;28;20240;-74
2022/08/11 01:35:33;;;;;;;9.73;6.60;;;18.20;99.90;;;;;;5059331;28;20302;-74
2022/08/11 01:38:33;;;;;;;10.17;7.10;;;18.10;99.90;;;;;;5059368;28;20310;-74
2022/08/11 01:41:11;;;;;;;8.00;6.47;;;18.10;99.90;;;;;;5063350;28;20220;-74
2022/08/11 01:50:52;;;;;;;7.93;7.00;;;18.00;99.90;;;;;;5055422;28;20235;-74
2022/08/11 01:53:35;;;;;;;9.23;7.20;;;18.00;99.90;;;;;;5055926;28;20228;-73
2022/08/11 01:56:23;;;;;;;12.43;7.93;;;17.90;99.90;;;;;;5056084;28;20654;-73
2022/08/11 01:59:09;;;;;;;9.40;6.03;;;17.90;99.90;;;;;;5059821;28;20263;-74
2022/08/11 02:01:39;;;;;;;8.90;7.80;;;17.90;99.90;;;;;;5059804;28;20659;-74
2022/08/11 02:04:30;;;;;;;9.87;7.03;;;17.80;99.90;;;;;;5054782;28;20593;-73
2022/08/11 02:07:20;;;;;;;11.30;7.63;;;17.80;99.90;;;;;;5059188;28;20563;-75
2022/08/11 02:13:40;;;;;;;11.50;7.07;;;17.70;99.90;;;;;;5059219;28;20201;-74
2022/08/11 02:16:32;;;;;;;9.27;6.97;;;17.60;99.90;;;;;;5062724;28;20203;-74
2022/08/11 02:25:45;;;;;;;10.20;7.57;;;17.50;99.90;;;;;;5059507;28;20296;-74
2022/08/11 02:28:27;;;;;;;11.27;8.10;;;17.50;99.90;;;;;;5056783;28;20327;-74
2022/08/11 02:34:39;;;;;;;9.73;7.33;;;17.40;99.90;;;;;;5056878;28;20212;-73
2022/08/11 02:37:23;;;;;;;10.93;7.77;;;17.30;99.90;;;;;;5051211;28;20213;-73
2022/08/11 02:40:04;;;;;;;11.97;8.60;;;17.30;99.90;;;;;;5064174;28;20239;-74
2022/08/11 02:42:49;;;;;;;9.93;8.23;;;17.30;99.90;;;;;;5054599;28;20296;-75
2022/08/11 02:45:34;;;;;;;10.50;7.97;;;17.20;99.90;;;;;;5052352;28;20688;-74
2022/08/11 02:51:51;;;;;;;8.80;7.70;;;17.20;99.90;;;;;;5047579;28;20785;-74
2022/08/11 02:54:36;;;;;;;12.77;8.70;;;17.20;99.90;;;;;;5058316;28;20269;-73
2022/08/11 02:57:11;;;;;;;10.13;9.00;;;17.10;99.90;;;;;;5055287;28;20299;-73
2022/08/11 03:00:06;;;;;;;9.60;8.43;;;17.10;99.90;;;;;;5057219;28;20680;-73
2022/08/11 03:03:04;;;;;;;12.20;8.10;;;17.10;99.90;;;;;;5064729;28;20515;-74
2022/08/11 03:06:09;;;;;;;13.07;9.40;;;17.10;99.90;;;;;;5056443;28;20239;-74
2022/08/11 03:09:01;;;;;;;11.97;7.53;;;17.00;99.90;;;;;;5035089;28;20698;-74
2022/08/11 03:18:05;;;;;;;10.47;8.33;;;17.00;99.90;;;;;;5056065;28;20532;-74
2022/08/11 03:20:44;;;;;;;11.33;8.03;;;16.90;99.90;;;;;;5055026;28;20282;-73
2022/08/11 03:23:25;;;;;;;11.80;9.63;;;;;;;;;;5058554;28;20244;-75
2022/08/11 03:26:18;;;;;;;11.07;9.37;;;16.80;99.90;;;;;;5060975;28;20244;-76
2022/08/11 03:29:00;;;;;;;11.37;8.90;;;16.80;99.90;;;;;;5054439;28;20629;-73
2022/08/11 03:31:32;;;;;;;11.20;8.53;;;16.70;99.90;;;;;;5066049;28;20204;-73
2022/08/11 03:34:07;;;;;;;11.83;9.20;;;16.70;99.90;;;;;;5050960;28;20224;-74
2022/08/11 03:36:49;;;;;;;11.47;9.17;;;16.70;99.90;;;;;;5054808;28;20230;-74
2022/08/11 03:40:14;;;;;;;11.20;8.47;;;16.70;99.90;;;;;;5062244;28;20297;-75
2022/08/11 03:42:42;;;;;;;9.93;7.87;;;16.70;99.90;;;;;;5043799;28;20314;-75
2022/08/11 03:45:25;;;;;;;10.43;8.50;;;;;;;;;;5067590;28;20610;-74
2022/08/11 03:48:17;;;;;;;11.23;9.57;;;16.60;99.90;;;;;;5062253;28;20231;-74
2022/08/11 03:50:57;;;;;;;13.97;9.77;;;16.60;99.90;;;;;;5062314;28;20273;-75
2022/08/11 03:54:02;;;;;;;11.97;10.20;;;16.60;99.90;;;;;;5054958;28;20601;-73
2022/08/11 03:57:02;;;;;;;13.13;10.30;;;16.60;99.90;;;;;;5062548;28;20308;-74
2022/08/11 03:59:55;;;;;;;14.70;8.13;;;16.50;99.90;;;;;;5066921;28;20199;-75
2022/08/11 04:02:54;;;;;;;13.20;9.47;;;16.50;99.90;;;;;;5062209;28;20230;-75
2022/08/11 04:06:10;;;;;;;12.53;10.27;;;16.50;99.90;;;;;;5057752;28;20207;-74
2022/08/11 04:08:58;;;;;;;13.87;9.80;;;16.40;99.90;;;;;;5069173;28;20269;-73
2022/08/11 04:11:53;;;;;;;13.37;10.03;;;16.40;99.90;;;;;;5062849;28;20239;-75
2022/08/11 04:18:00;;;;;;;13.03;9.67;;;16.40;99.90;;;;;;5061070;28;20224;-74
2022/08/11 04:20:50;;;;;;;12.27;10.23;;;16.40;99.90;;;;;;5057760;28;20275;-75
2022/08/11 04:23:25;;;;;;;13.13;10.17;;;16.30;99.90;;;;;;5056790;28;20324;-74
2022/08/11 04:26:46;;;;;;;13.67;9.77;;;16.30;99.90;;;;;;5065378;28;20319;-74
2022/08/11 04:29:35;;;;;;;14.00;10.47;;;16.30;99.90;;;;;;5061623;28;20236;-74
2022/08/11 04:32:48;;;;;;;14.37;10.17;;;16.30;99.90;;;;;;5058031;28;21088;-75
2022/08/11 04:35:43;;;;;;;14.77;11.00;;;16.30;99.90;;;;;;5061779;28;20210;-74
2022/08/11 04:38:36;;;;;;;13.50;9.53;;;16.30;99.90;;;;;;5060180;28;20234;-73
2022/08/11 04:41:26;;;;;;;14.07;10.07;;;16.30;99.90;;;;;;5056949;28;20270;-75
2022/08/11 04:44:30;;;;;;;11.47;9.50;;;16.40;99.90;;;;;;5064236;28;20209;-74
2022/08/11 05:01:39;;;;;;;14.10;10.43;;;16.40;99.90;;;;;;5063843;28;20205;-74
2022/08/11 05:03:34;;;;;;;11.17;9.87;;;16.40;99.90;;;;;;5056946;28;20307;-74
2022/08/11 05:06:28;;;;;;;13.10;10.40;;;16.50;99.90;;;;;;5060573;28;20609;-74
2022/08/11 05:09:30;;;;;;;14.77;11.17;;;16.40;99.90;;;;;;5064674;28;20260;-75
2022/08/11 05:12:41;;;;;;;16.50;12.10;;;16.40;99.90;;;;;;5062599;28;20211;-76
2022/08/11 05:36:04;;;;;;;14.77;11.90;;;16.70;99.90;;;;;;5056307;28;20239;-75
2022/08/11 05:58:39;;;;;;;14.23;12.03;;;17.20;99.90;;;;;;5056301;28;20676;-73
2022/08/11 06:01:21;;;;;;;14.33;11.83;;;17.30;99.90;;;;;;5071044;28;20203;-74
2022/08/11 06:06:39;;;;;;;15.03;11.90;;;17.50;99.90;;;;;;5057384;28;20582;-74
2022/08/11 06:09:13;;;;;;;13.48;10.00;;;18.30;99.90;;;;;;5062750;28;20231;-74
2022/08/11 06:11:41;;;;;;;12.85;9.48;;;;;;;;;;5066191;28;20195;-74
2022/08/11 06:14:11;;;;;;;10.45;9.07;;;20.80;99.90;;;;;;5066917;28;20200;-74
2022/08/11 06:16:41;;;;;;;9.75;8.65;;;22.20;99.90;;;;;;5066176;28;20200;-74
2022/08/11 06:19:09;;;;;;;12.75;8.38;;;23.60;99.90;;;;;;5061339;28;20220;-75
2022/08/11 06:21:37;;;;;;;10.75;7.78;;;;;;;;;;5051089;28;20627;-75
2022/08/11 06:24:10;;;;;;;8.43;7.40;;;25.90;99.90;;;;;;5062710;28;20627;-74
2022/08/11 06:26:39;;;;;;;7.97;7.18;;;26.90;99.90;;;;;;5061796;28;20633;-75
2022/08/11 06:29:27;;;;;;;9.70;7.32;;;27.70;99.90;;;;;;5070135;28;20224;-75
2022/08/11 06:32:14;;;;;;;8.52;7.18;;;;;;;;;;5058208;28;20353;-74
2022/08/11 06:35:06;;;;;;;9.48;7.47;;;29.30;99.90;;;;;;5057008;28;20201;-76
2022/08/11 06:37:48;;;;;;;7.43;6.63;;;;;;;;;;5051259;28;20220;-76
2022/08/11 06:40:32;;;;;;;9.88;7.30;;;30.40;99.90;;;;;;5046211;28;20215;-76
2022/08/11 06:43:16;;;;;;;7.65;6.53;;;30.90;99.90;;;;;;5050798;28;20606;-75
2022/08/11 06:46:10;;;;;;;8.38;6.43;;;31.40;99.90;;;;;;5047763;28;20212;-75
2022/08/11 06:48:54;;;;;;;7.47;6.78;;;31.90;99.90;;;;;;5046259;28;20266;-76
2022/08/11 06:51:22;;;;;;;8.68;6.28;;;32.20;99.50;;;;;;5053904;28;20216;-76
2022/08/11 06:53:57;;;;;;;9.35;6.80;;;32.60;97.90;;;;;;5049302;28;20501;-76
2022/08/11 07:02:48;;;;;;;9.40;7.13;;;32.70;95.30;;;;;;5049903;28;20238;-77
2022/08/11 07:05:35;;;;;;;8.23;6.78;;;33.00;93.60;;;;;;5050692;28;20211;-76
2022/08/11 07:17:21;;;;;;;10.70;5.80;;;33.70;91.90;;;;;;5050444;28;20226;-77
2022/08/11 07:31:34;;;;;;;6.82;5.82;;;33.70;90.40;;;;;;5041656;28;20679;-76
2022/08/11 07:34:17;;;;;;;7.63;6.25;;;33.80;88.70;;;;;;5045817;28;20224;-76
2022/08/11 07:36:58;;;;;;;8.85;6.03;;;33.60;90.00;;;;;;5058619;28;20200;-76
2022/08/11 07:39:27;;;;;;;7.57;5.68;;;33.70;90.00;;;;;;5055540;28;20281;-75
2022/08/11 07:41:57;;;;;;;7.88;5.72;;;33.90;89.50;;;;;;5056430;28;20199;-76
2022/08/11 07:44:28;;;;;;;6.40;5.68;;;34.20;87.90;;;;;;5052640;28;20213;-76
2022/08/11 07:52:36;;;;;;;5.30;4.78;;;34.30;86.20;;;;;;5059179;28;20204;-76
2022/08/11 07:55:16;;;;;;;6.25;5.65;;;34.20;85.80;;;;;;5062995;28;20263;-75
2022/08/11 08:17:55;;;;;;;6.90;4.40;;;34.80;81.00;;;;;;5065144;28;20718;-75
2022/08/11 08:20:48;;;;;;;4.03;3.67;;;34.70;80.70;;;;;;5066492;28;20386;-76
2022/08/11 08:23:31;;;;;;;4.70;3.47;;;34.70;81.00;;;;;;5057708;28;20521;-75
2022/08/11 08:26:57;;;;;;;7.25;3.13;;;34.70;79.80;;;;;;5072020;28;20615;-76
2022/08/11 08:30:46;;;;;;;9.80;3.10;;;34.80;79.60;;;;;;5059973;28;20215;-76
2022/08/11 08:31:48;;;;;;;5.50;3.05;;;34.80;77.30;;;;;;5058729;28;20208;-76
2022/08/11 08:34:16;;;;;;;7.03;3.30;;;35.10;75.90;;;;;;5068130;28;20234;-77
2022/08/11 08:36:49;;;;;;;6.72;3.20;;;35.10;74.90;;;;;;5067150;28;20273;-76
2022/08/11 08:39:20;;;;;;;5.43;3.33;;;35.30;74.60;;;;;;5061874;28;20207;-76
2022/08/11 08:41:58;;;;;;;5.65;3.00;;;35.30;74.70;;;;;;5067560;28;20655;-76
2022/08/11 08:44:26;;;;;;;4.50;3.13;;;35.40;74.40;;;;;;5062706;28;20208;-75
2022/08/11 08:47:09;;;;;;;4.60;3.63;;;35.60;73.20;;;;;;5057740;28;20593;-76
2022/08/11 08:49:43;;;;;;;6.47;3.38;;;35.70;72.90;;;;;;5070696;28;20259;-76
2022/08/11 08:52:39;;;;;;;5.85;2.97;;;35.60;72.50;;;;;;5062250;28;20208;-75
2022/08/11 08:55:15;;;;;;;6.43;2.88;;;35.30;69.70;;;;;;5061086;28;20298;-77
2022/08/11 08:57:44;;;;;;;6.45;2.78;;;35.10;68.60;;;;;;5066696;28;20193;-76
2022/08/11 09:00:14;;;;;;;5.30;3.00;;;35.10;67.60;;;;;;5058411;28;20236;-75
2022/08/11 09:02:48;;;;;;;4.20;2.85;;;35.10;69.70;;;;;;5058497;28;20227;-75
2022/08/11 09:05:18;;;;;;;6.35;2.67;;;35.20;70.60;;;;;;5058231;28;20204;-75
2022/08/11 09:07:49;;;;;;;4.57;2.45;;;35.00;69.20;;;;;;5059018;28;20262;-74
2022/08/11 09:10:18;;;;;;;3.78;2.28;;;34.90;68.00;;;;;;5064311;28;20280;-78
2022/08/11 09:12:46;;;;;;;5.63;3.17;;;34.80;66.90;;;;;;5059206;28;20200;-77
2022/08/11 09:15:15;;;;;;;5.32;2.50;;;34.70;68.20;;;;;;5062431;28;20208;-76
2022/08/11 09:18:00;;;;;;;3.80;2.40;;;34.80;66.90;;;;;;5065102;28;21044;-77
2022/08/11 09:20:32;;;;;;;5.07;2.70;;;35.00;65.70;;;;;;5062498;28;20568;-75
2022/08/11 09:29:00;;;;;;;6.38;2.75;;;35.00;63.00;;;;;;5056979;28;20204;-75
2022/08/11 09:31:32;;;;;;;4.97;3.03;;;35.00;62.90;;;;;;5052916;28;20200;-77
2022/08/11 09:34:05;;;;;;;3.95;2.70;;;35.00;65.40;;;;;;5078636;28;20219;-75
2022/08/11 09:42:05;;;;;;;3.17;2.40;;;34.60;66.40;;;;;;5062082;28;20300;-78
2022/08/11 09:59:46;;;;;;;4.20;2.67;;;33.20;68.10;;;;;;5044728;28;20572;-76
2022/08/11 10:02:14;;;;;;;9.60;3.15;;;33.10;65.20;;;;;;5039195;28;20610;-75
2022/08/11 10:04:45;;;;;;;5.10;2.72;;;33.20;63.70;;;;;;5046040;28;20241;-76
2022/08/11 10:07:17;;;;;;;4.25;2.92;;;33.30;65.00;;;;;;5042600;28;20373;-76
2022/08/11 10:09:50;;;;;;;5.03;2.42;;;33.40;66.30;;;;;;5038584;28;20225;-76
2022/08/11 10:12:28;;;;;;;4.40;2.30;;;33.50;65.10;;;;;;5041056;28;20193;-77
2022/08/11 10:20:37;;;;;;;5.10;2.70;;;33.30;62.70;;;;;;5042176;28;20232;-74
2022/08/11 10:28:38;;;;;;;4.25;2.42;;;33.50;63.80;;;;;;5040579;28;20225;-77
2022/08/11 10:34:25;;;;;;;5.35;2.35;;;33.80;58.10;;;;;;5042676;28;20214;-76
2022/08/11 10:36:57;;;;;;;3.80;2.35;;;33.70;56.70;;;;;;5043502;28;20201;-76
2022/08/11 10:39:26;;;;;;;5.38;2.17;;;33.70;57.90;;;;;;5038265;28;20680;-76
2022/08/11 10:44:57;;;;;;;2.42;2.05;;;33.80;57.40;;;;;;5040173;28;20616;-76
2022/08/11 10:47:33;;;;;;;3.50;1.90;;;33.80;57.10;;;;;;5038107;28;20275;-76
2022/08/11 10:58:44;;;;;;;4.63;2.40;;;33.70;56.40;;;;;;5043135;28;20233;-75
2022/08/11 11:01:13;;;;;;;4.03;2.55;;;33.70;56.40;;;;;;5038147;28;20224;-74
2022/08/11 11:03:41;;;;;;;6.45;2.20;;;33.70;56.30;;;;;;5040731;28;20700;-76
2022/08/11 11:06:24;;;;;;;5.22;2.45;;;33.70;56.00;;;;;;5047549;28;20553;-77
2022/08/11 11:09:03;;;;;;;4.40;2.20;;;33.70;56.00;;;;;;5041103;28;20262;-76
2022/08/11 11:18:00;;;;;;;2.33;1.95;;;33.60;56.20;;;;;;5024160;28;20542;-75
2022/08/11 11:20:38;;;;;;;4.28;2.50;;;33.50;56.90;;;;;;5027529;28;20208;-76
2022/08/11 11:23:32;;;;;;;2.92;2.40;;;33.40;56.90;;;;;;5026422;28;20268;-75
2022/08/11 11:26:33;;;;;;;4.13;1.95;;;33.40;58.70;;;;;;5022439;28;20194;-75
2022/08/11 11:29:24;;;;;;;5.30;2.47;;;33.50;57.20;;;;;;5025674;28;20221;-75
2022/08/11 11:32:28;;;;;;;4.82;2.10;;;33.70;57.70;;;;;;5026861;28;20654;-75
2022/08/11 11:35:14;;;;;;;4.40;2.25;;;33.70;56.40;;;;;;5024576;28;20650;-76
2022/08/11 11:37:47;;;;;;;2.90;2.10;;;33.70;58.50;;;;;;5024940;28;20615;-75
2022/08/11 11:40:32;;;;;;;4.50;2.22;;;33.60;56.70;;;;;;5024404;28;20285;-75
2022/08/11 11:43:00;;;;;;;2.50;2.30;;;33.60;56.00;;;;;;5028723;28;20201;-76
2022/08/11 11:45:27;;;;;;;3.40;2.13;;;33.70;55.10;;;;;;5026252;28;20569;-75
2022/08/11 11:47:58;;;;;;;3.83;1.83;;;33.80;54.50;;;;;;5021760;28;20309;-76
2022/08/11 11:50:30;;;;;;;5.28;2.42;;;33.90;54.70;;;;;;5027143;28;20249;-74
2022/08/11 11:53:00;;;;;;;3.88;2.13;;;34.00;57.40;;;;;;5032161;28;20237;-74
2022/08/11 11:55:29;;;;;;;3.92;2.20;;;34.00;55.30;;;;;;5024831;28;20202;-77
2022/08/11 12:03:33;;;;;;;4.95;2.40;;;34.10;54.20;;;;;;5024153;28;20221;-78
2022/08/11 12:06:01;;;;;;;2.30;2.10;;;34.00;53.90;;;;;;5028444;28;20285;-77
2022/08/11 12:08:29;;;;;;;3.85;2.58;;;33.90;55.50;;;;;;5026456;28;20218;-78
2022/08/11 12:13:52;;;;;;;3.70;2.42;;;34.00;54.70;;;;;;5022817;28;20464;-80
2022/08/11 12:16:22;;;;;;;4.60;2.50;;;34.10;55.20;;;;;;5021473;28;20225;-81
2022/08/11 12:19:09;;;;;;;3.30;2.30;;;34.20;54.50;;;;;;5023089;28;20598;-78
2022/08/11 12:21:37;;;;;;;2.92;2.10;;;34.40;55.30;;;;;;5022242;28;20193;-78
2022/08/11 12:29:48;;;;;;;3.55;2.15;;;34.40;52.90;;;;;;5023184;28;20232;-77
2022/08/11 12:32:24;;;;;;;3.63;2.47;;;34.50;52.40;;;;;;5025863;28;20218;-78
2022/08/11 12:34:52;;;;;;;3.22;2.60;;;34.50;52.30;;;;;;5033817;28;20204;-77
2022/08/11 12:37:23;;;;;;;3.13;2.08;;;34.40;54.40;;;;;;5024265;28;20194;-77
2022/08/11 12:46:11;;;;;;;5.30;2.22;;;34.60;53.80;;;;;;5026494;28;20686;-77
2022/08/11 12:51:57;;;;;;;2.13;1.92;;;34.60;52.20;;;;;;5022911;28;20194;-79
2022/08/11 12:55:01;;;;;;;5.05;2.42;;;34.70;51.20;;;;;;5024316;28;20561;-80
2022/08/11 13:05:59;;;;;;;2.95;2.00;;;34.70;51.70;;;;;;5024952;28;20290;-81
2022/08/11 13:08:29;;;;;;;3.05;1.80;;;34.60;50.90;;;;;;5026568;28;20268;-80
2022/08/11 13:13:46;;;;;;;5.93;2.40;;;34.70;50.70;;;;;;5031273;28;20327;-79
2022/08/11 13:17:19;;;;;;;2.40;2.20;;;34.70;50.30;;;;;;5021601;28;20209;-78
2022/08/11 13:19:21;;;;;;;3.45;2.13;;;34.80;51.00;;;;;;5026364;28;20232;-78
2022/08/11 13:21:50;;;;;;;5.25;2.33;;;34.90;50.80;;;;;;5026753;28;20920;-79
2022/08/11 13:24:18;;;;;;;2.20;1.70;;;34.90;50.60;;;;;;5027482;28;20212;-78
2022/08/11 13:26:47;;;;;;;4.35;2.40;;;34.70;49.80;;;;;;5021944;28;20299;-80
2022/08/11 13:29:18;;;;;;;3.63;2.30;;;34.60;49.40;;;;;;5027005;28;20205;-80
2022/08/11 13:31:46;;;;;;;2.72;2.00;;;34.70;49.20;;;;;;5023717;28;20260;-79
2022/08/11 13:34:19;;;;;;;3.42;2.00;;;34.70;49.60;;;;;;5025570;28;20717;-78
2022/08/11 13:36:50;;;;;;;3.88;2.10;;;34.70;49.90;;;;;;5031029;28;20206;-78
2022/08/11 13:39:19;;;;;;;2.85;2.17;;;34.60;50.80;;;;;;5025545;28;20283;-80
2022/08/11 13:41:48;;;;;;;5.68;2.17;;;34.70;51.10;;;;;;5024828;28;20241;-78
2022/08/11 13:44:16;;;;;;;4.03;2.35;;;34.80;51.40;;;;;;5029018;28;20210;-80
2022/08/11 13:46:51;;;;;;;3.05;2.10;;;35.00;51.10;;;;;;5025853;28;20197;-77
2022/08/11 13:49:20;;;;;;;2.92;2.22;;;34.90;50.40;;;;;;5029591;28;20210;-78
2022/08/11 13:51:47;;;;;;;3.60;2.22;;;34.90;51.00;;;;;;5025236;28;20622;-77
2022/08/11 13:54:29;;;;;;;4.00;2.30;;;35.10;50.80;;;;;;5022740;28;20216;-79
2022/08/11 13:57:00;;;;;;;2.10;1.90;;;34.90;49.10;;;;;;5029165;28;20233;-79
2022/08/11 13:59:28;;;;;;;2.42;1.90;;;34.80;48.60;;;;;;5025299;28;20287;-80
2022/08/11 14:02:03;;;;;;;4.03;2.20;;;34.90;49.10;;;;;;5019311;28;20228;-78
2022/08/11 14:04:57;;;;;;;3.33;2.13;;;35.00;50.20;;;;;;5023024;28;20210;-78
2022/08/11 14:07:33;;;;;;;3.25;2.47;;;35.00;51.00;;;;;;5024329;28;20229;-78
2022/08/11 14:10:01;;;;;;;4.53;2.22;;;35.00;49.40;;;;;;5025374;28;20294;-76
2022/08/11 14:15:26;;;;;;;4.30;2.10;;;34.90;49.20;;;;;;5023432;28;20283;-78
2022/08/11 14:18:08;;;;;;;3.35;1.92;;;34.80;48.50;;;;;;5022605;28;20340;-77
2022/08/11 14:23:40;;;;;;;3.97;2.33;;;34.60;49.40;;;;;;5024895;28;20230;-78
2022/08/11 14:26:26;;;;;;;2.78;2.13;;;34.60;49.10;;;;;;5024007;28;20201;-77
2022/08/11 14:28:59;;;;;;;5.43;2.10;;;34.50;49.20;;;;;;5019218;28;20304;-77
2022/08/11 14:31:28;;;;;;;3.88;2.17;;;34.50;49.40;;;;;;5025414;28;20625;-78
2022/08/11 14:33:56;;;;;;;3.83;2.20;;;34.60;49.90;;;;;;5025606;28;20221;-78
2022/08/11 14:36:58;;;;;;;7.03;2.40;;;34.70;50.20;;;;;;5024797;28;20205;-77
2022/08/11 14:39:27;;;;;;;3.70;2.13;;;34.80;51.90;;;;;;5023935;28;20559;-78
2022/08/11 14:47:32;;;;;;;4.07;1.75;;;35.00;51.20;;;;;;5023197;28;20303;-77
2022/08/11 14:50:01;;;;;;;3.95;2.05;;;34.90;50.80;;;;;;5026236;28;20254;-79
2022/08/11 14:52:44;;;;;;;3.25;2.00;;;34.90;51.30;;;;;;5028154;28;20202;-79
2022/08/11 14:57:59;;;;;;;3.28;2.10;;;34.80;50.50;;;;;;5028204;28;20291;-78
2022/08/11 15:00:26;;;;;;;4.32;2.22;;;34.70;50.70;;;;;;5027409;28;20312;-78
2022/08/11 15:03:10;;;;;;;2.67;1.70;;;34.60;50.70;;;;;;5025840;28;20214;-77
2022/08/11 15:05:49;;;;;;;5.20;2.10;;;34.50;51.50;;;;;;5025718;28;20213;-77
2022/08/11 15:14:01;;;;;;;5.03;1.83;;;34.40;51.70;;;;;;5022433;28;20639;-76
2022/08/11 15:19:14;;;;;;;4.38;1.70;;;34.50;51.10;;;;;;5022884;28;20234;-76
2022/08/11 15:24:27;;;;;;;2.97;1.73;;;34.60;51.30;;;;;;5022047;28;20611;-76
2022/08/11 15:38:10;;;;;;;2.13;1.90;;;34.60;51.20;;;;;;5021178;28;20202;-75
2022/08/11 15:46:44;;;;;;;1.80;1.55;;;34.40;51.10;;;;;;5017251;28;20209;-77
2022/08/11 15:49:21;;;;;;;2.75;1.80;;;34.40;50.90;;;;;;5018880;28;20614;-77
2022/08/11 15:52:02;;;;;;;2.65;1.77;;;34.30;51.10;;;;;;5024310;28;20197;-77
2022/08/11 15:54:32;;;;;;;3.00;2.15;;;34.30;51.20;;;;;;5017435;28;20207;-76
2022/08/11 15:57:01;;;;;;;3.10;1.58;;;34.20;51.60;;;;;;5023293;28;20554;-77
2022/08/11 16:04:55;;;;;;;3.92;1.70;;;34.20;52.50;;;;;;5016007;28;20538;-77
2022/08/11 16:07:26;;;;;;;2.05;1.50;;;34.20;52.10;;;;;;5017375;28;20210;-76
2022/08/11 16:10:06;;;;;;;5.40;2.05;;;34.10;51.50;;;;;;5024559;28;20199;-76
2022/08/11 16:16:12;;;;;;;2.60;1.92;;;34.10;51.30;;;;;;5016750;28;20231;-78
2022/08/11 16:18:50;;;;;;;3.92;1.73;;;34.00;51.80;;;;;;5020971;28;20222;-75
2022/08/11 16:21:25;;;;;;;4.10;1.63;;;33.90;51.60;;;;;;5024729;28;20231;-76
2022/08/11 16:24:05;;;;;;;3.30;2.00;;;33.90;52.30;;;;;;5019795;28;20202;-77
2022/08/11 16:26:35;;;;;;;2.80;1.70;;;33.80;52.10;;;;;;5018326;28;20210;-77
2022/08/11 16:29:24;;;;;;;2.00;1.60;;;33.70;52.00;;;;;;5025178;28;20292;-77
2022/08/11 16:40:12;;;;;;;4.13;1.70;;;33.50;52.00;;;;;;5022658;28;20265;-76
2022/08/11 16:48:41;;;;;;;4.30;1.70;;;33.20;51.40;;;;;;5017951;28;20607;-77
2022/08/11 16:51:11;;;;;;;3.00;1.70;;;33.00;50.90;;;;;;5019491;28;20209;-79
2022/08/11 16:53:41;;;;;;;4.13;1.80;;;33.00;51.30;;;;;;5019721;28;20264;-77
2022/08/11 16:56:37;;;;;;;5.07;1.63;;;33.00;51.70;;;;;;5021620;28;20590;-77
2022/08/11 16:59:15;;;;;;;2.55;1.30;;;33.00;52.50;;;;;;5019353;28;20241;-76
2022/08/11 17:01:58;;;;;;;2.92;1.65;;;33.00;52.70;;;;;;5017307;28;20203;-75
2022/08/11 17:13:32;;;;;;;3.47;1.70;;;32.70;53.30;;;;;;5019697;28;20260;-78
2022/08/11 17:16:08;;;;;;;4.43;1.80;;;32.70;53.70;;;;;;5016528;28;20722;-76
2022/08/11 17:18:44;;;;;;;4.10;1.65;;;32.60;53.90;;;;;;5018808;28;20280;-75
2022/08/11 17:21:16;;;;;;;3.45;1.70;;;32.60;53.70;;;;;;5018527;28;20287;-77
2022/08/11 17:23:49;;;;;;;3.60;1.80;;;32.40;53.80;;;;;;5018508;28;20237;-75
2022/08/11 17:26:19;;;;;;;2.92;1.70;;;32.40;53.70;;;;;;5024992;28;20206;-76
2022/08/11 17:28:51;;;;;;;2.80;1.70;;;32.30;54.10;;;;;;5022607;28;20218;-78
2022/08/11 17:36:59;;;;;;;3.08;2.03;;;32.00;55.60;;;;;;5013567;28;20210;-76
2022/08/11 17:39:29;;;;;;;4.43;2.10;;;31.90;55.50;;;;;;5018044;28;20301;-76
2022/08/11 17:50:19;;;;;;;4.22;2.15;;;31.80;55.80;;;;;;5015312;28;20323;-75
2022/08/11 18:01:07;;;;;;;4.20;2.15;;;31.30;56.20;;;;;;5017120;28;20517;-77
2022/08/11 18:03:38;;;;;;;3.50;1.92;;;31.60;58.00;;;;;;5018402;28;20229;-77
2022/08/11 18:06:09;;;;;;;4.43;1.75;;;31.30;57.30;;;;;;5024286;28;20291;-76
